Observation data for Denver City on 08/04/2020      Previous  Date       Current Mesonet Observations  Soil Data  Daily Summary Page  Observations in Plain Language
KDVS 040500Z 12010KT 24/16 A3013 RMK A01 T02430160  RH  062%=      5-min Rain = 0
KDVS 040505Z 12009KT 24/16 A3013 RMK A01 T02430160  RH  063%=      5-min Rain = 0
KDVS 040510Z 12010KT 24/16 A3013 RMK A01 T02410160  RH  064%=      5-min Rain = 0
KDVS 040515Z 12010KT 24/16 A3013 RMK A01 T02400161  RH  064%=      5-min Rain = 0
KDVS 040520Z 12011KT 24/16 A3013 RMK A01 T02400160  RH  064%=      5-min Rain = 0
KDVS 040525Z 12010KT 24/16 A3013 RMK A01 T02390160  RH  064%=      5-min Rain = 0
KDVS 040530Z 13010KT 24/16 A3013 RMK A01 T02390160  RH  064%=      5-min Rain = 0
KDVS 040535Z 12009KT 24/16 A3013 RMK A01 T02380159  RH  064%=      5-min Rain = 0
KDVS 040540Z 13009KT 24/16 A3013 RMK A01 T02380159  RH  064%=      5-min Rain = 0
KDVS 040545Z 12009KT 24/16 A3014 RMK A01 T02380159  RH  064%=      5-min Rain = 0
KDVS 040550Z 13009KT 24/16 A3014 RMK A01 T02370159  RH  065%=      5-min Rain = 0
KDVS 040555Z 13008KT 24/16 A3014 RMK A01 T02360160  RH  065%=      5-min Rain = 0
KDVS 040600Z 13009KT 23/16 A3014 RMK A01 T02340159  RH  066%=      5-min Rain = 0
KDVS 040605Z 13009KT 23/16 A3014 RMK A01 T02340159  RH  066%=      5-min Rain = 0
KDVS 040610Z 13009KT 23/16 A3013 RMK A01 T02340159  RH  066%=      5-min Rain = 0
KDVS 040615Z 13008KT 23/16 A3014 RMK A01 T02330159  RH  066%=      5-min Rain = 0
KDVS 040620Z 13009KT 23/16 A3013 RMK A01 T02320159  RH  067%=      5-min Rain = 0
KDVS 040625Z 13010KT 23/16 A3013 RMK A01 T02320159  RH  066%=      5-min Rain = 0
KDVS 040630Z 12010KT 23/16 A3013 RMK A01 T02330158  RH  066%=      5-min Rain = 0
KDVS 040635Z 12010KT 23/16 A3014 RMK A01 T02330158  RH  066%=      5-min Rain = 0
KDVS 040640Z 13009KT 23/16 A3014 RMK A01 T02320158  RH  066%=      5-min Rain = 0
KDVS 040645Z 13009KT 23/16 A3013 RMK A01 T02310159  RH  067%=      5-min Rain = 0
KDVS 040650Z 13009KT 23/16 A3013 RMK A01 T02300159  RH  067%=      5-min Rain = 0
KDVS 040655Z 13010KT 23/16 A3013 RMK A01 T02290159  RH  068%=      5-min Rain = 0
KDVS 040700Z 13009KT 23/16 A3013 RMK A01 T02280159  RH  068%=      5-min Rain = 0
KDVS 040705Z 13009KT 23/16 A3013 RMK A01 T02270159  RH  069%=      5-min Rain = 0
KDVS 040710Z 13009KT 23/16 A3013 RMK A01 T02270159  RH  069%=      5-min Rain = 0
KDVS 040715Z 13009KT 23/16 A3013 RMK A01 T02260159  RH  069%=      5-min Rain = 0
KDVS 040720Z 13009KT 23/16 A3012 RMK A01 T02250159  RH  070%=      5-min Rain = 0
KDVS 040725Z 13009KT 22/16 A3012 RMK A01 T02240160  RH  070%=      5-min Rain = 0
KDVS 040730Z 13008KT 22/16 A3012 RMK A01 T02230160  RH  070%=      5-min Rain = 0
KDVS 040735Z 13008KT 22/16 A3012 RMK A01 T02230160  RH  071%=      5-min Rain = 0
KDVS 040740Z 13007KT 22/16 A3012 RMK A01 T02230160  RH  071%=      5-min Rain = 0
KDVS 040745Z 12008KT 22/16 A3012 RMK A01 T02230160  RH  071%=      5-min Rain = 0
KDVS 040750Z 11008KT 22/16 A3012 RMK A01 T02240160  RH  071%=      5-min Rain = 0
KDVS 040755Z 11008KT 23/16 A3012 RMK A01 T02250160  RH  070%=      5-min Rain = 0
KDVS 040800Z 07008KT 22/17 A3013 RMK A01 T02180166  RH  076%=      5-min Rain = 0
KDVS 040805Z 03010KT 22/17 A3015 RMK A01 T02170167  RH  077%=      5-min Rain = 0.01
KDVS 040810Z 01011KT 22/17 A3016 RMK A01 T02210166  RH  075%=      5-min Rain = 0
KDVS 040815Z 33008KT 22/17 A3017 RMK A01 T02230166  RH  074%=      5-min Rain = 0
KDVS 040820Z 29009KT 23/17 A3017 RMK A01 T02250167  RH  073%=      5-min Rain = 0
KDVS 040825Z 26007KT 23/17 A3017 RMK A01 T02270166  RH  072%=      5-min Rain = 0
KDVS 040830Z 23008KT 23/17 A3015 RMK A01 T02260169  RH  074%=      5-min Rain = 0
KDVS 040835Z 23010KT 23/17 A3014 RMK A01 T02250169  RH  074%=      5-min Rain = 0
KDVS 040840Z 22010KT 22/17 A3013 RMK A01 T02240171  RH  076%=      5-min Rain = 0
KDVS 040845Z 21011KT 22/17 A3012 RMK A01 T02200172  RH  078%=      5-min Rain = 0
KDVS 040850Z 20008KT 22/17 A3012 RMK A01 T02190171  RH  078%=      5-min Rain = 0
KDVS 040855Z 20009KT 22/17 A3012 RMK A01 T02190170  RH  077%=      5-min Rain = 0
KDVS 040900Z 18010KT 22/17 A3011 RMK A01 T02170170  RH  079%=      5-min Rain = 0
KDVS 040905Z 18008KT 21/17 A3011 RMK A01 T02130166  RH  078%=      5-min Rain = 0
KDVS 040910Z 18009KT 21/16 A3011 RMK A01 T02130163  RH  077%=      5-min Rain = 0
KDVS 040915Z 16009KT 21/16 A301 RMK A01 T02120163  RH  077%=      5-min Rain = 0
KDVS 040920Z 16009KT 21/17 A3009 RMK A01 T02100165  RH  079%=      5-min Rain = 0
KDVS 040925Z 16008KT 21/17 A3009 RMK A01 T02090166  RH  080%=      5-min Rain = 0
KDVS 040930Z 15006KT 21/17 A3009 RMK A01 T02090166  RH  080%=      5-min Rain = 0
KDVS 040935Z 15005KT 21/17 A3009 RMK A01 T02090167  RH  081%=      5-min Rain = 0
KDVS 040940Z 18003KT 21/17 A3009 RMK A01 T02080168  RH  082%=      5-min Rain = 0
KDVS 040945Z 22002KT 21/17 A301 RMK A01 T02090169  RH  082%=      5-min Rain = 0
KDVS 040950Z 07003KT 21/17 A301 RMK A01 T02080170  RH  083%=      5-min Rain = 0
KDVS 040955Z 07007KT 21/17 A301 RMK A01 T02050170  RH  084%=      5-min Rain = 0
KDVS 041000Z 10006KT 21/17 A301 RMK A01 T02060167  RH  082%=      5-min Rain = 0
KDVS 041005Z 13004KT 21/16 A301 RMK A01 T02070163  RH  080%=      5-min Rain = 0
KDVS 041010Z 14003KT 21/16 A301 RMK A01 T02070162  RH  079%=      5-min Rain = 0
KDVS 041015Z 13003KT 21/16 A301 RMK A01 T02060163  RH  080%=      5-min Rain = 0
KDVS 041020Z 11003KT 21/16 A301 RMK A01 T02050164  RH  081%=      5-min Rain = 0
KDVS 041025Z 12005KT 20/17 A301 RMK A01 T02020165  RH  083%=      5-min Rain = 0
KDVS 041030Z 14006KT 20/17 A301 RMK A01 T01990166  RH  085%=      5-min Rain = 0
KDVS 041035Z 15007KT 20/17 A3009 RMK A01 T02000165  RH  084%=      5-min Rain = 0
KDVS 041040Z 15007KT 20/16 A3009 RMK A01 T02010164  RH  084%=      5-min Rain = 0
KDVS 041045Z 14007KT 20/17 A3009 RMK A01 T01980165  RH  085%=      5-min Rain = 0
KDVS 041050Z 14007KT 20/17 A3009 RMK A01 T01980165  RH  085%=      5-min Rain = 0
KDVS 041055Z 14008KT 20/17 A3009 RMK A01 T01980165  RH  085%=      5-min Rain = 0
KDVS 041100Z 13008KT 20/17 A3009 RMK A01 T01980165  RH  085%=      5-min Rain = 0
KDVS 041105Z 13007KT 20/17 A3009 RMK A01 T01980165  RH  086%=      5-min Rain = 0
KDVS 041110Z 13006KT 20/17 A3009 RMK A01 T01970165  RH  086%=      5-min Rain = 0
KDVS 041115Z 13007KT 20/17 A3009 RMK A01 T01970165  RH  086%=      5-min Rain = 0
KDVS 041120Z 13007KT 20/17 A3009 RMK A01 T01960165  RH  086%=      5-min Rain = 0
KDVS 041125Z 13007KT 20/17 A3009 RMK A01 T01960165  RH  086%=      5-min Rain = 0
KDVS 041130Z 13008KT 20/17 A3009 RMK A01 T01960165  RH  086%=      5-min Rain = 0
KDVS 041135Z 13008KT 20/17 A3009 RMK A01 T01970165  RH  086%=      5-min Rain = 0
KDVS 041140Z 14008KT 20/17 A3009 RMK A01 T01970165  RH  086%=      5-min Rain = 0
KDVS 041145Z 15008KT 20/17 A3009 RMK A01 T01980165  RH  085%=      5-min Rain = 0
KDVS 041150Z 15008KT 20/17 A3009 RMK A01 T01980165  RH  085%=      5-min Rain = 0
KDVS 041155Z 14007KT 20/17 A3009 RMK A01 T01980166  RH  086%=      5-min Rain = 0
KDVS 041200Z 14008KT 20/17 A3009 RMK A01 T01980166  RH  086%=      5-min Rain = 0
KDVS 041205Z 15007KT 20/17 A301 RMK A01 T01980166  RH  086%=      5-min Rain = 0
KDVS 041210Z 16004KT 20/17 A301 RMK A01 T01980166  RH  086%=      5-min Rain = 0
KDVS 041215Z 17002KT 20/17 A3011 RMK A01 T01990166  RH  085%=      5-min Rain = 0
KDVS 041220Z 17003KT 20/17 A3011 RMK A01 T02000166  RH  085%=      5-min Rain = 0
KDVS 041225Z 18005KT 20/17 A3011 RMK A01 T02010166  RH  084%=      5-min Rain = 0
KDVS 041230Z 17004KT 20/17 A3011 RMK A01 T02030166  RH  084%=      5-min Rain = 0
KDVS 041235Z 16004KT 20/17 A3011 RMK A01 T02040167  RH  084%=      5-min Rain = 0
KDVS 041240Z 17004KT 21/17 A3011 RMK A01 T02050167  RH  083%=      5-min Rain = 0
KDVS 041245Z 17004KT 21/17 A3011 RMK A01 T02050167  RH  083%=      5-min Rain = 0
KDVS 041250Z 17004KT 21/17 A3011 RMK A01 T02050167  RH  083%=      5-min Rain = 0
KDVS 041255Z 16004KT 21/17 A3011 RMK A01 T02050168  RH  083%=      5-min Rain = 0
KDVS 041300Z 15004KT 21/17 A3011 RMK A01 T02050167  RH  083%=      5-min Rain = 0
KDVS 041305Z 15003KT 21/17 A3011 RMK A01 T02050167  RH  083%=      5-min Rain = 0
KDVS 041310Z 15003KT 21/17 A3011 RMK A01 T02050167  RH  083%=      5-min Rain = 0
KDVS 041315Z 14004KT 21/17 A3012 RMK A01 T02060167  RH  083%=      5-min Rain = 0
KDVS 041320Z 14005KT 21/17 A3012 RMK A01 T02060168  RH  082%=      5-min Rain = 0
KDVS 041325Z 16003KT 21/17 A3012 RMK A01 T02080168  RH  082%=      5-min Rain = 0
KDVS 041330Z 10002KT 21/17 A3012 RMK A01 T02110167  RH  080%=      5-min Rain = 0
KDVS 041335Z 10005KT 21/17 A3012 RMK A01 T02140166  RH  078%=      5-min Rain = 0
KDVS 041340Z 11005KT 22/16 A3012 RMK A01 T02160164  RH  076%=      5-min Rain = 0
KDVS 041345Z 12006KT 22/16 A3012 RMK A01 T02180163  RH  075%=      5-min Rain = 0
KDVS 041350Z 13007KT 22/16 A3012 RMK A01 T02190162  RH  074%=      5-min Rain = 0
KDVS 041355Z 14007KT 23/16 A3012 RMK A01 T02250164  RH  072%=      5-min Rain = 0
KDVS 041400Z 14007KT 23/16 A3012 RMK A01 T02260163  RH  071%=      5-min Rain = 0
KDVS 041405Z 13007KT 23/16 A3012 RMK A01 T02270161  RH  070%=      5-min Rain = 0
KDVS 041410Z 14006KT 23/16 A3013 RMK A01 T02300160  RH  068%=      5-min Rain = 0
KDVS 041415Z 15005KT 23/16 A3013 RMK A01 T02340160  RH  066%=      5-min Rain = 0
KDVS 041420Z 16005KT 23/16 A3013 RMK A01 T02330160  RH  067%=      5-min Rain = 0
KDVS 041425Z 15006KT 23/16 A3013 RMK A01 T02320158  RH  066%=      5-min Rain = 0
KDVS 041430Z 15006KT 23/16 A3013 RMK A01 T02320157  RH  066%=      5-min Rain = 0
KDVS 041435Z 16006KT 23/16 A3013 RMK A01 T02320157  RH  065%=      5-min Rain = 0
KDVS 041440Z 16005KT 23/16 A3013 RMK A01 T02320158  RH  066%=      5-min Rain = 0
KDVS 041445Z 17005KT 23/16 A3013 RMK A01 T02340158  RH  066%=      5-min Rain = 0
KDVS 041450Z 15005KT 24/16 A3013 RMK A01 T02370159  RH  065%=      5-min Rain = 0
KDVS 041455Z 16004KT 24/16 A3013 RMK A01 T02420161  RH  064%=      5-min Rain = 0
KDVS 041500Z 18006KT 25/16 A3013 RMK A01 T02450156  RH  061%=      5-min Rain = 0
KDVS 041505Z 17005KT 25/16 A3013 RMK A01 T02450156  RH  060%=      5-min Rain = 0
KDVS 041510Z 19005KT 25/15 A3013 RMK A01 T02510154  RH  057%=      5-min Rain = 0
KDVS 041515Z 19005KT 25/15 A3014 RMK A01 T02530154  RH  057%=      5-min Rain = 0
KDVS 041520Z 19005KT 25/15 A3014 RMK A01 T02540151  RH  056%=      5-min Rain = 0
KDVS 041525Z 18005KT 26/15 A3014 RMK A01 T02580152  RH  054%=      5-min Rain = 0
KDVS 041530Z 18007KT 26/15 A3013 RMK A01 T02630154  RH  053%=      5-min Rain = 0
KDVS 041535Z 19007KT 26/15 A3013 RMK A01 T02630154  RH  053%=      5-min Rain = 0
KDVS 041540Z 19008KT 27/15 A3013 RMK A01 T02650153  RH  052%=      5-min Rain = 0
KDVS 041545Z 19008KT 27/15 A3013 RMK A01 T02690154  RH  052%=      5-min Rain = 0
KDVS 041550Z 20008KT 27/15 A3013 RMK A01 T02690153  RH  051%=      5-min Rain = 0
KDVS 041555Z 19007KT 27/16 A3013 RMK A01 T02710155  RH  052%=      5-min Rain = 0
KDVS 041600Z 19008KT 28/15 A3013 RMK A01 T02750154  RH  050%=      5-min Rain = 0
KDVS 041605Z 19009KT 28/15 A3013 RMK A01 T02770152  RH  049%=      5-min Rain = 0
KDVS 041610Z 19008KT 28/15 A3013 RMK A01 T02790152  RH  048%=      5-min Rain = 0
KDVS 041615Z 19009KT 28/15 A3013 RMK A01 T02820153  RH  047%=      5-min Rain = 0
KDVS 041620Z 19008KT 28/15 A3013 RMK A01 T02830152  RH  047%=      5-min Rain = 0
KDVS 041625Z 20008KT 29/15 A3013 RMK A01 T02850152  RH  046%=      5-min Rain = 0
KDVS 041630Z 20007KT 29/15 A3013 RMK A01 T02890151  RH  045%=      5-min Rain = 0
KDVS 041635Z 19007KT 29/15 A3013 RMK A01 T02920151  RH  044%=      5-min Rain = 0
KDVS 041640Z 20008KT 29/15 A3013 RMK A01 T02930149  RH  043%=      5-min Rain = 0
KDVS 041645Z 20008KT 30/15 A3013 RMK A01 T02970149  RH  042%=      5-min Rain = 0
KDVS 041650Z 19007KT 30/15 A3013 RMK A01 T02990151  RH  043%=      5-min Rain = 0
KDVS 041655Z 19007KT 30/15 A3013 RMK A01 T03040150  RH  041%=      5-min Rain = 0
KDVS 041700Z 18007KT 31/14 A3013 RMK A01 T03080144  RH  039%=      5-min Rain = 0
KDVS 041705Z 17007KT 31/15 A3013 RMK A01 T03100148  RH  039%=      5-min Rain = 0
KDVS 041710Z 18008G13KT 32/14 A3013 RMK A01 T03150142  RH  037%=      5-min Rain = 0
KDVS 041715Z 18010KT 32/13 A3013 RMK A01 T03160134  RH  034%=      5-min Rain = 0
KDVS 041720Z 16009KT 32/14 A3013 RMK A01 T03180139  RH  035%=      5-min Rain = 0
KDVS 041725Z 17011KT 32/14 A3012 RMK A01 T03170140  RH  036%=      5-min Rain = 0
KDVS 041730Z 17011G18KT 32/14 A3012 RMK A01 T03210135  RH  034%=      5-min Rain = 0
KDVS 041735Z 19011G16KT 32/13 A3012 RMK A01 T03240131  RH  032%=      5-min Rain = 0
KDVS 041740Z 18012G17KT 32/13 A3012 RMK A01 T03230131  RH  032%=      5-min Rain = 0
KDVS 041745Z 18011G16KT 32/13 A3012 RMK A01 T03240131  RH  032%=      5-min Rain = 0
KDVS 041750Z 17012KT 33/13 A3012 RMK A01 T03260130  RH  032%=      5-min Rain = 0
KDVS 041755Z 17011G16KT 33/13 A3011 RMK A01 T03290129  RH  031%=      5-min Rain = 0
KDVS 041800Z 17011G18KT 34/13 A3011 RMK A01 T03350130  RH  030%=      5-min Rain = 0
KDVS 041805Z 18012KT 33/13 A3011 RMK A01 T03300129  RH  031%=      5-min Rain = 0
KDVS 041810Z 18013KT 33/13 A3011 RMK A01 T03340129  RH  030%=      5-min Rain = 0
KDVS 041815Z 18012G19KT 33/13 A3011 RMK A01 T03330128  RH  030%=      5-min Rain = 0
KDVS 041820Z 18013G19KT 33/13 A3011 RMK A01 T03330130  RH  030%=      5-min Rain = 0
KDVS 041825Z 18014KT 33/12 A3011 RMK A01 T03320121  RH  029%=      5-min Rain = 0
KDVS 041830Z 18012G18KT 34/12 A301 RMK A01 T03350122  RH  028%=      5-min Rain = 0
KDVS 041835Z 16014KT 34/12 A301 RMK A01 T03370117  RH  027%=      5-min Rain = 0
KDVS 041840Z 17013G18KT 34/12 A301 RMK A01 T03380116  RH  027%=      5-min Rain = 0
KDVS 041845Z 19013G18KT 34/11 A301 RMK A01 T03390112  RH  026%=      5-min Rain = 0
KDVS 041850Z 19014G19KT 34/12 A301 RMK A01 T03400118  RH  027%=      5-min Rain = 0
KDVS 041855Z 18012G18KT 34/12 A301 RMK A01 T03420121  RH  027%=      5-min Rain = 0
KDVS 041900Z 17011G17KT 35/12 A301 RMK A01 T03450120  RH  027%=      5-min Rain = 0
KDVS 041905Z 19013G19KT 34/12 A3009 RMK A01 T03430115  RH  026%=      5-min Rain = 0
KDVS 041910Z 17014KT 35/11 A3009 RMK A01 T03470113  RH  025%=      5-min Rain = 0
KDVS 041915Z 18013KT 34/11 A3009 RMK A01 T03440112  RH  025%=      5-min Rain = 0
KDVS 041920Z 18013G22KT 34/11 A3009 RMK A01 T03440114  RH  026%=      5-min Rain = 0
KDVS 041925Z 18013KT 35/11 A3009 RMK A01 T03470109  RH  024%=      5-min Rain = 0
KDVS 041930Z 19014G20KT 35/11 A3009 RMK A01 T03450111  RH  025%=      5-min Rain = 0
KDVS 041935Z 20012G17KT 34/11 A3009 RMK A01 T03440108  RH  025%=      5-min Rain = 0
KDVS 041940Z 21013G18KT 35/11 A3008 RMK A01 T03480110  RH  024%=      5-min Rain = 0
KDVS 041945Z 20013G19KT 35/11 A3008 RMK A01 T03490111  RH  024%=      5-min Rain = 0
KDVS 041950Z 19013G20KT 35/12 A3008 RMK A01 T03500116  RH  025%=      5-min Rain = 0
KDVS 041955Z 18011G18KT 36/12 A3008 RMK A01 T03550118  RH  025%=      5-min Rain = 0
KDVS 042000Z 19013G18KT 35/12 A3008 RMK A01 T03520120  RH  025%=      5-min Rain = 0
KDVS 042005Z 19013G19KT 35/12 A3007 RMK A01 T03530115  RH  025%=      5-min Rain = 0
KDVS 042010Z 18011G17KT 35/11 A3007 RMK A01 T03520113  RH  024%=      5-min Rain = 0
KDVS 042015Z 20012KT 36/12 A3007 RMK A01 T03550117  RH  025%=      5-min Rain = 0
KDVS 042020Z 19009KT 35/12 A3007 RMK A01 T03530118  RH  025%=      5-min Rain = 0
KDVS 042025Z 20013KT 36/12 A3006 RMK A01 T03550116  RH  025%=      5-min Rain = 0
KDVS 042030Z 17013G20KT 36/12 A3006 RMK A01 T03550117  RH  025%=      5-min Rain = 0
KDVS 042035Z 17011G17KT 36/12 A3006 RMK A01 T03600118  RH  024%=      5-min Rain = 0
KDVS 042040Z 19011KT 36/12 A3006 RMK A01 T03600117  RH  024%=      5-min Rain = 0
KDVS 042045Z 18010G16KT 36/12 A3006 RMK A01 T03620117  RH  024%=      5-min Rain = 0
KDVS 042050Z 18014G20KT 36/11 A3005 RMK A01 T03590114  RH  024%=      5-min Rain = 0
KDVS 042055Z 20012G17KT 36/11 A3005 RMK A01 T03550112  RH  024%=      5-min Rain = 0
KDVS 042100Z 19010G17KT 36/11 A3005 RMK A01 T03580113  RH  024%=      5-min Rain = 0
KDVS 042105Z 19010G17KT 35/11 A3005 RMK A01 T03540108  RH  023%=      5-min Rain = 0
KDVS 042110Z 19013G18KT 36/11 A3005 RMK A01 T03590108  RH  023%=      5-min Rain = 0
KDVS 042115Z 19011KT 36/11 A3005 RMK A01 T03630106  RH  022%=      5-min Rain = 0
KDVS 042120Z 17012G18KT 36/11 A3005 RMK A01 T03620106  RH  022%=      5-min Rain = 0
KDVS 042125Z 17013G20KT 36/10 A3004 RMK A01 T03620104  RH  022%=      5-min Rain = 0
KDVS 042130Z 16013G19KT 36/10 A3004 RMK A01 T03610102  RH  022%=      5-min Rain = 0
KDVS 042135Z 17013G20KT 36/10 A3004 RMK A01 T03620100  RH  021%=      5-min Rain = 0
KDVS 042140Z 16011G17KT 36/10 A3004 RMK A01 T03610099  RH  021%=      5-min Rain = 0
KDVS 042145Z 16009G17KT 36/10 A3004 RMK A01 T03610098  RH  021%=      5-min Rain = 0
KDVS 042150Z 17008G13KT 36/10 A3003 RMK A01 T03610097  RH  021%=      5-min Rain = 0
KDVS 042155Z 16012KT 36/10 A3003 RMK A01 T03630097  RH  021%=      5-min Rain = 0
KDVS 042200Z 17011KT 36/10 A3003 RMK A01 T03640097  RH  021%=      5-min Rain = 0
KDVS 042205Z 17013G18KT 37/10 A3003 RMK A01 T03650097  RH  020%=      5-min Rain = 0
KDVS 042210Z 17013G18KT 36/10 A3003 RMK A01 T03640097  RH  020%=      5-min Rain = 0
KDVS 042215Z 18014G19KT 37/10 A3003 RMK A01 T03650095  RH  020%=      5-min Rain = 0
KDVS 042220Z 18011KT 37/10 A3003 RMK A01 T03650097  RH  020%=      5-min Rain = 0
KDVS 042225Z 16008KT 37/10 A3003 RMK A01 T03650096  RH  020%=      5-min Rain = 0
KDVS 042230Z 17011G16KT 36/10 A3002 RMK A01 T03640096  RH  020%=      5-min Rain = 0
KDVS 042235Z 18009G15KT 37/09 A3002 RMK A01 T03660094  RH  020%=      5-min Rain = 0
KDVS 042240Z 16008G13KT 37/09 A3002 RMK A01 T03650091  RH  019%=      5-min Rain = 0
KDVS 042245Z 18010KT 37/09 A3002 RMK A01 T03660094  RH  020%=      5-min Rain = 0
KDVS 042250Z 15009G14KT 37/10 A3002 RMK A01 T03660096  RH  020%=      5-min Rain = 0
KDVS 042255Z 14010G15KT 37/09 A3001 RMK A01 T03670094  RH  020%=      5-min Rain = 0
KDVS 042300Z 16010G15KT 36/09 A3001 RMK A01 T03630089  RH  019%=      5-min Rain = 0
KDVS 042305Z 18010KT 36/09 A3001 RMK A01 T03640092  RH  020%=      5-min Rain = 0
KDVS 042310Z 18012KT 36/09 A3001 RMK A01 T03640092  RH  020%=      5-min Rain = 0
KDVS 042315Z 18011KT 36/09 A3001 RMK A01 T03620092  RH  020%=      5-min Rain = 0
KDVS 042320Z 18009KT 36/09 A3001 RMK A01 T03610089  RH  020%=      5-min Rain = 0
KDVS 042325Z 16010G16KT 36/09 A30 RMK A01 T03630091  RH  020%=      5-min Rain = 0
KDVS 042330Z 18011G16KT 36/09 A30 RMK A01 T03630092  RH  020%=      5-min Rain = 0
KDVS 042335Z 18012G17KT 36/09 A30 RMK A01 T03630092  RH  020%=      5-min Rain = 0
KDVS 042340Z 16011KT 36/09 A30 RMK A01 T03640093  RH  020%=      5-min Rain = 0
KDVS 042345Z 16013KT 36/09 A30 RMK A01 T03640092  RH  020%=      5-min Rain = 0
KDVS 042350Z 16013G18KT 36/09 A30 RMK A01 T03620091  RH  020%=      5-min Rain = 0
KDVS 042355Z 16012KT 36/09 A2999 RMK A01 T03610090  RH  020%=      5-min Rain = 0
KDVS 050000Z 17013KT 36/09 A30 RMK A01 T03600092  RH  020%=      5-min Rain = 0
KDVS 050005Z 18010G15KT 36/09 A30 RMK A01 T03600092  RH  020%=      5-min Rain = 0
KDVS 050010Z 16011G18KT 36/09 A30 RMK A01 T03620093  RH  020%=      5-min Rain = 0
KDVS 050015Z 16013G19KT 36/09 A30 RMK A01 T03580089  RH  020%=      5-min Rain = 0
KDVS 050020Z 17012KT 36/09 A30 RMK A01 T03570089  RH  020%=      5-min Rain = 0
KDVS 050025Z 17012KT 36/09 A30 RMK A01 T03560088  RH  020%=      5-min Rain = 0
KDVS 050030Z 17011G16KT 36/09 A30 RMK A01 T03550088  RH  020%=      5-min Rain = 0
KDVS 050035Z 17010KT 36/09 A30 RMK A01 T03550089  RH  020%=      5-min Rain = 0
KDVS 050040Z 17011KT 35/09 A30 RMK A01 T03540088  RH  020%=      5-min Rain = 0
KDVS 050045Z 17010KT 35/09 A30 RMK A01 T03530089  RH  021%=      5-min Rain = 0
KDVS 050050Z 17008KT 35/09 A30 RMK A01 T03520088  RH  021%=      5-min Rain = 0
KDVS 050055Z 15009KT 35/09 A30 RMK A01 T03510090  RH  021%=      5-min Rain = 0
KDVS 050100Z 15008KT 35/09 A3001 RMK A01 T03490090  RH  021%=      5-min Rain = 0
KDVS 050105Z 16007KT 35/09 A3001 RMK A01 T03470094  RH  022%=      5-min Rain = 0
KDVS 050110Z 16007KT 34/10 A3001 RMK A01 T03440095  RH  022%=      5-min Rain = 0
KDVS 050115Z 15008KT 34/10 A3001 RMK A01 T03410095  RH  023%=      5-min Rain = 0
KDVS 050120Z 15008KT 34/09 A3001 RMK A01 T03360094  RH  023%=      5-min Rain = 0
KDVS 050125Z 15007KT 33/10 A3001 RMK A01 T03310096  RH  024%=      5-min Rain = 0
KDVS 050130Z 15007KT 32/10 A3001 RMK A01 T03240099  RH  026%=      5-min Rain = 0
KDVS 050135Z 15006KT 32/10 A3001 RMK A01 T03180101  RH  027%=      5-min Rain = 0
KDVS 050140Z 15007KT 31/10 A3001 RMK A01 T03130102  RH  028%=      5-min Rain = 0
KDVS 050145Z 15007KT 31/10 A3001 RMK A01 T03090103  RH  029%=      5-min Rain = 0
KDVS 050150Z 15006KT 30/11 A3002 RMK A01 T03040105  RH  030%=      5-min Rain = 0
KDVS 050155Z 15006KT 30/11 A3002 RMK A01 T02980107  RH  032%=      5-min Rain = 0
KDVS 050200Z 15007KT 30/11 A3002 RMK A01 T02950109  RH  033%=      5-min Rain = 0
KDVS 050205Z 15007KT 29/11 A3002 RMK A01 T02920110  RH  034%=      5-min Rain = 0
KDVS 050210Z 15006KT 29/11 A3002 RMK A01 T02870114  RH  035%=      5-min Rain = 0
KDVS 050215Z 15006KT 28/12 A3002 RMK A01 T02830116  RH  037%=      5-min Rain = 0
KDVS 050220Z 15007KT 28/12 A3002 RMK A01 T02800117  RH  038%=      5-min Rain = 0
KDVS 050225Z 15007KT 28/12 A3002 RMK A01 T02790118  RH  038%=      5-min Rain = 0
KDVS 050230Z 15006KT 28/12 A3002 RMK A01 T02770120  RH  039%=      5-min Rain = 0
KDVS 050235Z 15007KT 27/12 A3002 RMK A01 T02730123  RH  041%=      5-min Rain = 0
KDVS 050240Z 14007KT 27/13 A3002 RMK A01 T02700125  RH  042%=      5-min Rain = 0
KDVS 050245Z 14007KT 27/13 A3002 RMK A01 T02680128  RH  044%=      5-min Rain = 0
KDVS 050250Z 14007KT 26/13 A3002 RMK A01 T02640132  RH  046%=      5-min Rain = 0
KDVS 050255Z 15007KT 26/13 A3002 RMK A01 T02610132  RH  047%=      5-min Rain = 0
KDVS 050300Z 15007KT 26/13 A3002 RMK A01 T02600129  RH  046%=      5-min Rain = 0
KDVS 050305Z 15007KT 26/13 A3002 RMK A01 T02620126  RH  045%=      5-min Rain = 0
KDVS 050310Z 15007KT 26/12 A3003 RMK A01 T02630123  RH  044%=      5-min Rain = 0
KDVS 050315Z 15007KT 26/12 A3003 RMK A01 T02630124  RH  044%=      5-min Rain = 0
KDVS 050320Z 15007KT 26/12 A3003 RMK A01 T02620123  RH  043%=      5-min Rain = 0
KDVS 050325Z 15007KT 26/12 A3003 RMK A01 T02620123  RH  044%=      5-min Rain = 0
KDVS 050330Z 15007KT 26/12 A3003 RMK A01 T02620123  RH  044%=      5-min Rain = 0
KDVS 050335Z 15008KT 26/12 A3003 RMK A01 T02620122  RH  043%=      5-min Rain = 0
KDVS 050340Z 15008KT 26/12 A3003 RMK A01 T02630121  RH  043%=      5-min Rain = 0
KDVS 050345Z 15008KT 27/12 A3003 RMK A01 T02650119  RH  042%=      5-min Rain = 0
KDVS 050350Z 15008KT 26/12 A3003 RMK A01 T02640119  RH  042%=      5-min Rain = 0
KDVS 050355Z 15008KT 26/12 A3003 RMK A01 T02620120  RH  043%=      5-min Rain = 0
KDVS 050400Z 15008KT 26/12 A3003 RMK A01 T02600120  RH  043%=      5-min Rain = 0
KDVS 050405Z 15008KT 26/12 A3003 RMK A01 T02590120  RH  043%=      5-min Rain = 0
KDVS 050410Z 16008KT 26/12 A3003 RMK A01 T02590118  RH  043%=      5-min Rain = 0
KDVS 050415Z 16009KT 26/12 A3003 RMK A01 T02620116  RH  042%=      5-min Rain = 0
KDVS 050420Z 16009KT 27/11 A3003 RMK A01 T02660111  RH  039%=      5-min Rain = 0
KDVS 050425Z 16009KT 27/11 A3003 RMK A01 T02690108  RH  038%=      5-min Rain = 0
KDVS 050430Z 16010KT 27/11 A3003 RMK A01 T02700105  RH  037%=      5-min Rain = 0
KDVS 050435Z 17010KT 27/10 A3002 RMK A01 T02740102  RH  035%=      5-min Rain = 0
KDVS 050440Z 17011KT 28/10 A3002 RMK A01 T02760100  RH  034%=      5-min Rain = 0
KDVS 050445Z 17011KT 28/10 A3002 RMK A01 T02770100  RH  034%=      5-min Rain = 0
KDVS 050450Z 16011KT 28/10 A3002 RMK A01 T02760099  RH  034%=      5-min Rain = 0
KDVS 050455Z 16012KT 28/10 A3002 RMK A01 T02770098  RH  034%=      5-min Rain = 0

Page generated in 0.0117 seconds.